METAR Data
IDs: Format: Raw Decoded Include TAF

Data at: 1835 UTC 23 Oct 2018

Region: TOP
KATL 231752Z 35006KT 10SM FEW040 FEW150 BKN250 21/10 A3020 RMK AO2 SLP223 T02060100 10206 20122 58016

KBOS 231816Z 10013KT 4SM RA FEW019 SCT029 OVC055 12/09 A3000 RMK AO2 RAB1757 P0001 T01220094

KBWI 231754Z 27011G19KT 10SM FEW055 FEW250 20/02 A2999 RMK AO2 SLP153 T02000017 10206 20061 58028

KCLE 231751Z 29015KT 10SM SCT028 BKN038 BKN049 11/04 A3015 RMK AO2 SLP213 T01110039 10122 20061 51015

KCLT 231752Z VRB04KT 10SM FEW160 OVC250 19/06 A3017 RMK AO2 SLP213 T01940056 10200 20072 58018

KCVG 231752Z 30011KT 10SM CLR 17/M02 A3019 RMK AO2 SLP221 T01671017 10167 20039 58006

KDCA 231752Z 25008KT 10SM FEW050 FEW250 22/04 A3001 RMK AO2 SLP161 T02170044 10217 20083 58028

KDEN 231753Z 16003KT 10SM FEW095 BKN120 BKN220 15/04 A3021 RMK AO2 SLP184 T01500039 10150 20067 58008

KDFW 231753Z 07006KT 10SM FEW090 FEW140 SCT250 20/08 A3021 RMK AO2 SLP224 T02000078 10200 20128 58008

KDTW 231753Z 32014G20KT 10SM BKN045 12/02 A3015 RMK AO2 SLP212 T01220017 10128 20061 51010

KEWR 231751Z 25009G20KT 10SM FEW045 FEW080 17/05 A2994 RMK AO2 SLP139 T01720050 10178 20083 58033 $

KFLL 231753Z 08008KT 10SM FEW038 FEW250 28/20 A3002 RMK AO2 SLP165 T02830200 10289 20250 58019

KIAD 231752Z 25008G18KT 10SM SCT080 21/04 A3000 RMK AO2 SLP159 T02060044 10206 20033

KIAH 231753Z VRB05KT 10SM -RA FEW012 SCT050 BKN090 OVC140 13/12 A3015 RMK AO2 SLP210 P0005 60037 T01330122 10133 20122 58009

KJFK 231751Z 23008KT 10SM FEW040 FEW080 FEW250 16/07 A2996 RMK AO2 SLP146 T01610067 10167 20122 58031

KLAS 231756Z 00000KT 10SM FEW110 SCT250 22/08 A3000 RMK AO2 SLP144 T02170083 10217 20150 50005

KLAX 231753Z 27008KT 6SM HZ BKN011 19/16 A2993 RMK AO2 SLP133 T01940156 10194 20172 50005

KLGA 231751Z 22009KT 10SM FEW080 19/06 A2994 RMK AO2 SLP138 10185 20117 T01830061 58033 $

KMCO 231753Z 19004KT 10SM SCT040 SCT075 BKN150 BKN250 28/18 A3006 RMK AO2 SLP177 T02780178 10283 20200 58021

KMDW 231753Z VRB04KT 10SM FEW040 12/01 A3030 RMK AO2 SLP261 T01170006 10117 20050 50005

KMEM 231754Z 07004KT 10SM BKN250 19/06 A3025 RMK AO2 SLP241 T01890056 10189 20083 58009

KMIA 231753Z 12006KT 10SM BKN040 BKN055 BKN300 29/21 A3002 RMK AO2 SLP167 T02890206 10294 20250 58020

KMSP 231753Z 35005KT 10SM SCT037 08/M02 A3041 RMK AO2 SLP303 T00781017 10083 20000 50001

KORD 231751Z 35007KT 10SM FEW040 11/00 A3029 RMK AO2 SLP259 T01110000 10111 20044 50004

KPDX 231753Z 20010KT 10SM FEW006 BKN010 OVC250 10/08 A2999 RMK AO2 SLP155 T01000078 10106 20067 53025

KPHL 231754Z 22012KT 10SM FEW050 SCT065 SCT250 18/04 A2998 RMK AO2 SLP152 T01780044 10183 20100 58027 $

KPHX 231751Z VRB03KT 10SM SCT085 SCT180 BKN230 28/16 A2985 RMK AO2 SLP091 TCU DSNT NE T02830156 10283 20211 50003

KPIT 231802Z 30018G22KT 10SM FEW035 BKN055 12/02 A3006 RMK AO2 WSHFT 1746 T01220017

KSAN 231751Z 30004KT 10SM SCT015 SCT250 20/14 A2994 RMK AO2 SLP137 T02000144 10200 20167 51004

KSEA 231830Z 18009KT 3SM BR OVC006 10/09 A2995 RMK AO2 SFC VIS 4 T01000089

KSFO 231756Z 31007KT 10SM FEW022 BKN200 16/09 A3004 RMK AO2 SLP173 T01610089 10161 20094 53011

KSLC 231754Z 20009KT 10SM FEW050 FEW080 BKN120 17/04 A3011 RMK AO2 SLP166 VIRGA TCU DSNT SE 60000 T01670044 10167 20111 50004

KSTL 231751Z 35007KT 10SM SCT010 SCT250 16/M01 A3030 RMK AO2 SLP261 FU SCT010 T01611006 10161 20061 58006

KTPA 231753Z 23007KT 10SM SCT050 BKN220 28/18 A3006 RMK AO2 SLP179 T02830178 10289 20211 58022 $